sensor_id;sensor_type;location;lat;lon;timestamp;temperature;humidity
1453;DHT22;720;47.738;7.998;2024-02-23T00:01:47;5.70;99.90
1453;DHT22;720;47.738;7.998;2024-02-23T00:04:13;5.80;99.90
1453;DHT22;720;47.738;7.998;2024-02-23T00:06:38;5.90;99.90
1453;DHT22;720;47.738;7.998;2024-02-23T00:09:04;5.90;99.90
1453;DHT22;720;47.738;7.998;2024-02-23T00:11:30;5.80;99.90
1453;DHT22;720;47.738;7.998;2024-02-23T00:13:58;5.80;99.90
1453;DHT22;720;47.738;7.998;2024-02-23T00:16:24;5.80;99.90
1453;DHT22;720;47.738;7.998;2024-02-23T00:18:50;5.60;99.90
1453;DHT22;720;47.738;7.998;2024-02-23T00:21:15;5.30;99.90
1453;DHT22;720;47.738;7.998;2024-02-23T00:23:41;5.00;99.90
1453;DHT22;720;47.738;7.998;2024-02-23T00:26:07;4.90;99.90
1453;DHT22;720;47.738;7.998;2024-02-23T00:28:32;4.70;99.90
1453;DHT22;720;47.738;7.998;2024-02-23T00:30:58;4.70;99.90
1453;DHT22;720;47.738;7.998;2024-02-23T00:33:23;4.60;99.90
1453;DHT22;720;47.738;7.998;2024-02-23T00:35:49;4.40;99.90
1453;DHT22;720;47.738;7.998;2024-02-23T00:38:15;4.50;99.90
1453;DHT22;720;47.738;7.998;2024-02-23T00:40:40;4.60;99.90
1453;DHT22;720;47.738;7.998;2024-02-23T00:43:06;4.50;99.90
1453;DHT22;720;47.738;7.998;2024-02-23T00:45:31;4.60;99.90
1453;DHT22;720;47.738;7.998;2024-02-23T00:47:57;4.50;99.90
1453;DHT22;720;47.738;7.998;2024-02-23T00:50:23;4.50;99.90
1453;DHT22;720;47.738;7.998;2024-02-23T00:52:52;4.40;99.90
1453;DHT22;720;47.738;7.998;2024-02-23T00:55:18;4.20;99.90
1453;DHT22;720;47.738;7.998;2024-02-23T00:57:44;4.10;99.90
1453;DHT22;720;47.738;7.998;2024-02-23T01:00:11;4.00;99.90
1453;DHT22;720;47.738;7.998;2024-02-23T01:02:38;4.00;99.90
1453;DHT22;720;47.738;7.998;2024-02-23T01:05:04;3.90;99.90
1453;DHT22;720;47.738;7.998;2024-02-23T01:07:30;3.90;99.90
1453;DHT22;720;47.738;7.998;2024-02-23T01:09:56;3.90;99.90
1453;DHT22;720;47.738;7.998;2024-02-23T01:12:22;3.90;99.90
1453;DHT22;720;47.738;7.998;2024-02-23T01:14:47;3.70;99.90
1453;DHT22;720;47.738;7.998;2024-02-23T01:17:14;3.80;99.90
1453;DHT22;720;47.738;7.998;2024-02-23T01:19:41;3.90;99.90
1453;DHT22;720;47.738;7.998;2024-02-23T01:22:08;4.10;99.90
1453;DHT22;720;47.738;7.998;2024-02-23T01:24:33;4.30;99.90
1453;DHT22;720;47.738;7.998;2024-02-23T01:26:59;4.40;99.90
1453;DHT22;720;47.738;7.998;2024-02-23T01:29:26;4.40;99.90
1453;DHT22;720;47.738;7.998;2024-02-23T01:31:51;4.50;99.90
1453;DHT22;720;47.738;7.998;2024-02-23T01:34:20;4.50;99.90
1453;DHT22;720;47.738;7.998;2024-02-23T01:36:47;4.50;99.90
1453;DHT22;720;47.738;7.998;2024-02-23T01:39:12;4.60;99.90
1453;DHT22;720;47.738;7.998;2024-02-23T01:41:38;4.70;99.90
1453;DHT22;720;47.738;7.998;2024-02-23T01:44:04;4.50;99.90
1453;DHT22;720;47.738;7.998;2024-02-23T01:46:30;4.40;99.90
1453;DHT22;720;47.738;7.998;2024-02-23T01:48:56;4.40;99.90
1453;DHT22;720;47.738;7.998;2024-02-23T01:51:22;4.40;99.90
1453;DHT22;720;47.738;7.998;2024-02-23T01:53:48;4.40;99.90
1453;DHT22;720;47.738;7.998;2024-02-23T01:56:15;4.30;99.90
1453;DHT22;720;47.738;7.998;2024-02-23T01:58:44;4.30;99.90
1453;DHT22;720;47.738;7.998;2024-02-23T02:01:10;4.10;99.90
1453;DHT22;720;47.738;7.998;2024-02-23T02:03:38;4.10;99.90
1453;DHT22;720;47.738;7.998;2024-02-23T02:06:05;4.10;99.90
1453;DHT22;720;47.738;7.998;2024-02-23T02:08:33;4.20;99.90
1453;DHT22;720;47.738;7.998;2024-02-23T02:10:59;4.40;99.90
1453;DHT22;720;47.738;7.998;2024-02-23T02:13:24;4.50;99.90
1453;DHT22;720;47.738;7.998;2024-02-23T02:15:50;4.50;99.90
1453;DHT22;720;47.738;7.998;2024-02-23T02:18:16;4.40;99.90
1453;DHT22;720;47.738;7.998;2024-02-23T02:20:55;4.30;99.90
1453;DHT22;720;47.738;7.998;2024-02-23T02:23:22;4.20;99.90
1453;DHT22;720;47.738;7.998;2024-02-23T02:25:55;4.30;99.90
1453;DHT22;720;47.738;7.998;2024-02-23T02:28:21;4.40;99.90
1453;DHT22;720;47.738;7.998;2024-02-23T02:30:47;4.50;99.90
1453;DHT22;720;47.738;7.998;2024-02-23T02:33:12;4.50;99.90
1453;DHT22;720;47.738;7.998;2024-02-23T02:35:38;4.50;99.90
1453;DHT22;720;47.738;7.998;2024-02-23T02:38:04;4.50;99.90
1453;DHT22;720;47.738;7.998;2024-02-23T02:40:29;4.60;99.90
1453;DHT22;720;47.738;7.998;2024-02-23T02:42:56;4.50;99.90
1453;DHT22;720;47.738;7.998;2024-02-23T02:45:22;4.20;99.90
1453;DHT22;720;47.738;7.998;2024-02-23T02:47:47;4.20;99.90
1453;DHT22;720;47.738;7.998;2024-02-23T02:50:13;4.40;99.90
1453;DHT22;720;47.738;7.998;2024-02-23T02:52:39;4.50;99.90
1453;DHT22;720;47.738;7.998;2024-02-23T02:55:05;4.60;99.90
1453;DHT22;720;47.738;7.998;2024-02-23T02:57:31;4.70;99.90
1453;DHT22;720;47.738;7.998;2024-02-23T02:59:56;4.80;99.90
1453;DHT22;720;47.738;7.998;2024-02-23T03:02:22;4.70;99.90
1453;DHT22;720;47.738;7.998;2024-02-23T03:04:51;4.70;99.90
1453;DHT22;720;47.738;7.998;2024-02-23T03:07:17;4.80;99.90
1453;DHT22;720;47.738;7.998;2024-02-23T03:09:43;4.70;99.90
1453;DHT22;720;47.738;7.998;2024-02-23T03:12:09;4.80;99.90
1453;DHT22;720;47.738;7.998;2024-02-23T03:14:35;4.80;99.90
1453;DHT22;720;47.738;7.998;2024-02-23T03:17:02;4.90;99.90
1453;DHT22;720;47.738;7.998;2024-02-23T03:19:29;4.80;99.90
1453;DHT22;720;47.738;7.998;2024-02-23T03:21:54;4.70;99.90
1453;DHT22;720;47.738;7.998;2024-02-23T03:24:20;4.70;99.90
1453;DHT22;720;47.738;7.998;2024-02-23T03:26:46;4.50;99.90
1453;DHT22;720;47.738;7.998;2024-02-23T03:29:11;4.50;99.90
1453;DHT22;720;47.738;7.998;2024-02-23T03:31:37;4.60;99.90
1453;DHT22;720;47.738;7.998;2024-02-23T03:34:03;4.60;99.90
1453;DHT22;720;47.738;7.998;2024-02-23T03:36:28;4.60;99.90
1453;DHT22;720;47.738;7.998;2024-02-23T03:38:54;4.50;99.90
1453;DHT22;720;47.738;7.998;2024-02-23T03:41:20;4.50;99.90
1453;DHT22;720;47.738;7.998;2024-02-23T03:43:45;4.50;99.90
1453;DHT22;720;47.738;7.998;2024-02-23T03:46:11;4.50;99.90
1453;DHT22;720;47.738;7.998;2024-02-23T03:48:37;4.50;99.90
1453;DHT22;720;47.738;7.998;2024-02-23T03:51:04;4.50;99.90
1453;DHT22;720;47.738;7.998;2024-02-23T03:53:30;4.50;99.90
1453;DHT22;720;47.738;7.998;2024-02-23T03:55:57;4.30;99.90
1453;DHT22;720;47.738;7.998;2024-02-23T03:58:23;4.10;99.90
1453;DHT22;720;47.738;7.998;2024-02-23T04:00:48;4.20;99.90
1453;DHT22;720;47.738;7.998;2024-02-23T04:03:14;4.20;99.90
1453;DHT22;720;47.738;7.998;2024-02-23T04:05:39;4.30;99.90
1453;DHT22;720;47.738;7.998;2024-02-23T04:08:05;4.40;99.90
1453;DHT22;720;47.738;7.998;2024-02-23T04:10:31;4.40;99.90
1453;DHT22;720;47.738;7.998;2024-02-23T04:12:58;4.50;99.90
1453;DHT22;720;47.738;7.998;2024-02-23T04:15:23;4.50;99.90
1453;DHT22;720;47.738;7.998;2024-02-23T04:17:49;4.50;99.90
1453;DHT22;720;47.738;7.998;2024-02-23T04:20:15;4.50;99.90
1453;DHT22;720;47.738;7.998;2024-02-23T04:22:40;4.40;99.90
1453;DHT22;720;47.738;7.998;2024-02-23T04:25:06;4.50;99.90
1453;DHT22;720;47.738;7.998;2024-02-23T04:27:32;4.40;99.80
1453;DHT22;720;47.738;7.998;2024-02-23T04:29:58;4.40;99.40
1453;DHT22;720;47.738;7.998;2024-02-23T04:32:23;4.40;99.70
1453;DHT22;720;47.738;7.998;2024-02-23T04:35:08;4.30;99.90
1453;DHT22;720;47.738;7.998;2024-02-23T04:37:33;4.40;99.90
1453;DHT22;720;47.738;7.998;2024-02-23T04:39:59;4.40;99.90
1453;DHT22;720;47.738;7.998;2024-02-23T04:42:25;4.40;99.90
1453;DHT22;720;47.738;7.998;2024-02-23T04:44:50;4.30;99.90
1453;DHT22;720;47.738;7.998;2024-02-23T04:47:18;4.30;99.90
1453;DHT22;720;47.738;7.998;2024-02-23T04:49:43;4.30;99.90
1453;DHT22;720;47.738;7.998;2024-02-23T04:52:09;4.30;99.90
1453;DHT22;720;47.738;7.998;2024-02-23T04:54:35;4.30;99.80
1453;DHT22;720;47.738;7.998;2024-02-23T04:57:00;4.30;99.90
1453;DHT22;720;47.738;7.998;2024-02-23T04:59:26;4.40;99.90
1453;DHT22;720;47.738;7.998;2024-02-23T05:01:52;4.30;99.90
1453;DHT22;720;47.738;7.998;2024-02-23T05:04:17;4.30;99.90
1453;DHT22;720;47.738;7.998;2024-02-23T05:06:43;4.20;99.90
1453;DHT22;720;47.738;7.998;2024-02-23T05:09:09;4.40;99.90
1453;DHT22;720;47.738;7.998;2024-02-23T05:11:49;4.40;99.90
1453;DHT22;720;47.738;7.998;2024-02-23T05:14:15;4.40;99.90
1453;DHT22;720;47.738;7.998;2024-02-23T05:16:41;4.30;99.90
1453;DHT22;720;47.738;7.998;2024-02-23T05:19:06;4.40;99.90
1453;DHT22;720;47.738;7.998;2024-02-23T05:21:32;4.20;99.90
1453;DHT22;720;47.738;7.998;2024-02-23T05:23:57;4.10;99.90
1453;DHT22;720;47.738;7.998;2024-02-23T05:26:23;4.10;99.90
1453;DHT22;720;47.738;7.998;2024-02-23T05:28:49;4.20;99.90
1453;DHT22;720;47.738;7.998;2024-02-23T05:31:14;4.00;99.90
1453;DHT22;720;47.738;7.998;2024-02-23T05:33:40;4.00;99.90
1453;DHT22;720;47.738;7.998;2024-02-23T05:36:06;4.10;99.90
1453;DHT22;720;47.738;7.998;2024-02-23T05:38:32;4.20;99.90
1453;DHT22;720;47.738;7.998;2024-02-23T05:40:58;4.30;99.90
1453;DHT22;720;47.738;7.998;2024-02-23T05:43:23;4.30;99.70
1453;DHT22;720;47.738;7.998;2024-02-23T05:45:49;4.30;99.60
1453;DHT22;720;47.738;7.998;2024-02-23T05:48:15;4.30;99.70
1453;DHT22;720;47.738;7.998;2024-02-23T05:50:40;4.20;99.80
1453;DHT22;720;47.738;7.998;2024-02-23T05:53:06;4.10;99.90
1453;DHT22;720;47.738;7.998;2024-02-23T05:55:31;4.20;99.90
1453;DHT22;720;47.738;7.998;2024-02-23T05:57:57;4.20;99.50
1453;DHT22;720;47.738;7.998;2024-02-23T06:00:23;4.20;99.60
1453;DHT22;720;47.738;7.998;2024-02-23T06:02:48;4.20;99.70
1453;DHT22;720;47.738;7.998;2024-02-23T06:05:14;4.20;99.70
1453;DHT22;720;47.738;7.998;2024-02-23T06:07:41;4.20;99.00
1453;DHT22;720;47.738;7.998;2024-02-23T06:10:07;4.20;99.20
1453;DHT22;720;47.738;7.998;2024-02-23T06:12:32;4.20;99.60
1453;DHT22;720;47.738;7.998;2024-02-23T06:14:58;4.30;99.80
1453;DHT22;720;47.738;7.998;2024-02-23T06:17:24;4.40;99.50
1453;DHT22;720;47.738;7.998;2024-02-23T06:19:50;4.40;99.10
1453;DHT22;720;47.738;7.998;2024-02-23T06:22:18;4.40;99.00
1453;DHT22;720;47.738;7.998;2024-02-23T06:24:47;4.40;99.30
1453;DHT22;720;47.738;7.998;2024-02-23T06:27:12;4.40;99.50
1453;DHT22;720;47.738;7.998;2024-02-23T06:29:38;4.40;99.70
1453;DHT22;720;47.738;7.998;2024-02-23T06:32:04;4.40;99.60
1453;DHT22;720;47.738;7.998;2024-02-23T06:34:30;4.30;99.30
1453;DHT22;720;47.738;7.998;2024-02-23T06:36:56;4.30;99.10
1453;DHT22;720;47.738;7.998;2024-02-23T06:39:21;4.30;99.10
1453;DHT22;720;47.738;7.998;2024-02-23T06:41:47;4.30;99.30
1453;DHT22;720;47.738;7.998;2024-02-23T06:44:12;4.20;99.60
1453;DHT22;720;47.738;7.998;2024-02-23T06:46:38;4.30;99.70
1453;DHT22;720;47.738;7.998;2024-02-23T06:49:04;4.40;99.30
1453;DHT22;720;47.738;7.998;2024-02-23T06:51:31;4.50;99.10
1453;DHT22;720;47.738;7.998;2024-02-23T06:53:57;4.60;99.10
1453;DHT22;720;47.738;7.998;2024-02-23T06:56:23;4.40;99.10
1453;DHT22;720;47.738;7.998;2024-02-23T06:58:49;4.40;99.70
1453;DHT22;720;47.738;7.998;2024-02-23T07:01:14;4.40;99.80
1453;DHT22;720;47.738;7.998;2024-02-23T07:03:40;4.50;99.90
1453;DHT22;720;47.738;7.998;2024-02-23T07:06:08;4.50;99.80
1453;DHT22;720;47.738;7.998;2024-02-23T07:08:35;4.50;99.50
1453;DHT22;720;47.738;7.998;2024-02-23T07:11:01;4.40;99.50
1453;DHT22;720;47.738;7.998;2024-02-23T07:13:27;4.30;98.80
1453;DHT22;720;47.738;7.998;2024-02-23T07:15:52;4.30;99.20
1453;DHT22;720;47.738;7.998;2024-02-23T07:18:18;4.40;99.50
1453;DHT22;720;47.738;7.998;2024-02-23T07:20:44;4.40;99.50
1453;DHT22;720;47.738;7.998;2024-02-23T07:23:10;4.50;99.80
1453;DHT22;720;47.738;7.998;2024-02-23T07:25:35;4.60;99.80
1453;DHT22;720;47.738;7.998;2024-02-23T07:28:01;4.60;99.90
1453;DHT22;720;47.738;7.998;2024-02-23T07:30:26;4.60;99.20
1453;DHT22;720;47.738;7.998;2024-02-23T07:32:52;4.60;98.70
1453;DHT22;720;47.738;7.998;2024-02-23T07:35:18;4.50;99.00
1453;DHT22;720;47.738;7.998;2024-02-23T07:37:43;4.60;99.70
1453;DHT22;720;47.738;7.998;2024-02-23T07:40:09;4.80;99.30
1453;DHT22;720;47.738;7.998;2024-02-23T07:42:35;4.90;98.40
1453;DHT22;720;47.738;7.998;2024-02-23T07:45:02;5.10;98.20
1453;DHT22;720;47.738;7.998;2024-02-23T07:47:30;5.20;97.90
1453;DHT22;720;47.738;7.998;2024-02-23T07:49:55;5.30;98.30
1453;DHT22;720;47.738;7.998;2024-02-23T07:52:21;5.50;98.00
1453;DHT22;720;47.738;7.998;2024-02-23T07:54:49;5.60;98.00
1453;DHT22;720;47.738;7.998;2024-02-23T07:57:17;5.70;97.90
1453;DHT22;720;47.738;7.998;2024-02-23T07:59:43;5.70;97.70
1453;DHT22;720;47.738;7.998;2024-02-23T08:02:08;5.70;97.50
1453;DHT22;720;47.738;7.998;2024-02-23T08:04:34;5.80;97.50
1453;DHT22;720;47.738;7.998;2024-02-23T08:07:00;5.90;97.60
1453;DHT22;720;47.738;7.998;2024-02-23T08:09:25;6.20;97.90
1453;DHT22;720;47.738;7.998;2024-02-23T08:11:51;6.60;96.80
1453;DHT22;720;47.738;7.998;2024-02-23T08:14:16;6.70;94.90
1453;DHT22;720;47.738;7.998;2024-02-23T08:16:42;6.80;95.10
1453;DHT22;720;47.738;7.998;2024-02-23T08:19:08;7.40;95.40
1453;DHT22;720;47.738;7.998;2024-02-23T08:21:33;7.90;94.30
1453;DHT22;720;47.738;7.998;2024-02-23T08:23:59;8.30;93.90
1453;DHT22;720;47.738;7.998;2024-02-23T08:26:25;8.50;93.50
1453;DHT22;720;47.738;7.998;2024-02-23T08:28:50;8.60;92.70
1453;DHT22;720;47.738;7.998;2024-02-23T08:31:16;8.80;92.20
1453;DHT22;720;47.738;7.998;2024-02-23T08:33:42;10.00;91.80
1453;DHT22;720;47.738;7.998;2024-02-23T08:36:08;11.60;87.10
1453;DHT22;720;47.738;7.998;2024-02-23T08:38:33;12.50;80.50
1453;DHT22;720;47.738;7.998;2024-02-23T08:40:59;13.10;79.10
1453;DHT22;720;47.738;7.998;2024-02-23T08:43:25;13.80;73.90
1453;DHT22;720;47.738;7.998;2024-02-23T08:45:50;14.80;72.30
1453;DHT22;720;47.738;7.998;2024-02-23T08:48:17;16.30;67.80
1453;DHT22;720;47.738;7.998;2024-02-23T08:50:43;17.20;62.10
1453;DHT22;720;47.738;7.998;2024-02-23T08:53:09;18.10;58.90
1453;DHT22;720;47.738;7.998;2024-02-23T08:55:34;18.20;55.40
1453;DHT22;720;47.738;7.998;2024-02-23T08:58:00;18.00;54.20
1453;DHT22;720;47.738;7.998;2024-02-23T09:00:26;17.80;53.10
1453;DHT22;720;47.738;7.998;2024-02-23T09:02:51;18.00;52.80
1453;DHT22;720;47.738;7.998;2024-02-23T09:05:17;18.10;52.70
1453;DHT22;720;47.738;7.998;2024-02-23T09:07:43;18.00;52.00
1453;DHT22;720;47.738;7.998;2024-02-23T09:10:09;17.50;51.40
1453;DHT22;720;47.738;7.998;2024-02-23T09:12:34;17.20;51.90
1453;DHT22;720;47.738;7.998;2024-02-23T09:15:00;16.30;52.60
1453;DHT22;720;47.738;7.998;2024-02-23T09:17:25;16.40;53.20
1453;DHT22;720;47.738;7.998;2024-02-23T09:19:51;17.10;53.60
1453;DHT22;720;47.738;7.998;2024-02-23T09:22:17;17.70;51.40
1453;DHT22;720;47.738;7.998;2024-02-23T09:24:42;17.90;50.30
1453;DHT22;720;47.738;7.998;2024-02-23T09:27:08;18.30;50.30
1453;DHT22;720;47.738;7.998;2024-02-23T09:29:34;18.40;48.30
1453;DHT22;720;47.738;7.998;2024-02-23T09:32:00;18.40;48.70
1453;DHT22;720;47.738;7.998;2024-02-23T09:34:26;18.30;51.20
1453;DHT22;720;47.738;7.998;2024-02-23T09:36:52;18.50;48.40
1453;DHT22;720;47.738;7.998;2024-02-23T09:39:17;19.10;49.80
1453;DHT22;720;47.738;7.998;2024-02-23T09:41:43;19.70;46.90
1453;DHT22;720;47.738;7.998;2024-02-23T09:44:09;19.90;46.30
1453;DHT22;720;47.738;7.998;2024-02-23T09:46:37;19.40;45.70
1453;DHT22;720;47.738;7.998;2024-02-23T09:49:03;18.00;47.30
1453;DHT22;720;47.738;7.998;2024-02-23T09:51:32;18.10;47.90
1453;DHT22;720;47.738;7.998;2024-02-23T09:53:59;18.90;47.20
1453;DHT22;720;47.738;7.998;2024-02-23T09:56:28;19.50;45.40
1453;DHT22;720;47.738;7.998;2024-02-23T09:59:01;19.80;45.60
1453;DHT22;720;47.738;7.998;2024-02-23T10:01:29;19.80;44.30
1453;DHT22;720;47.738;7.998;2024-02-23T10:03:59;19.40;43.70
1453;DHT22;720;47.738;7.998;2024-02-23T10:06:25;19.40;44.40
1453;DHT22;720;47.738;7.998;2024-02-23T10:08:51;18.80;45.00
1453;DHT22;720;47.738;7.998;2024-02-23T10:11:24;18.60;45.40
1453;DHT22;720;47.738;7.998;2024-02-23T10:13:50;19.00;46.80
1453;DHT22;720;47.738;7.998;2024-02-23T10:16:17;18.20;46.70
1453;DHT22;720;47.738;7.998;2024-02-23T10:18:43;16.80;47.20
1453;DHT22;720;47.738;7.998;2024-02-23T10:21:09;17.10;49.60
1453;DHT22;720;47.738;7.998;2024-02-23T10:23:34;17.90;47.20
1453;DHT22;720;47.738;7.998;2024-02-23T10:26:00;18.50;47.00
1453;DHT22;720;47.738;7.998;2024-02-23T10:28:27;18.10;45.00
1453;DHT22;720;47.738;7.998;2024-02-23T10:30:53;17.30;45.20
1453;DHT22;720;47.738;7.998;2024-02-23T10:33:22;16.60;46.40
1453;DHT22;720;47.738;7.998;2024-02-23T10:35:53;16.40;48.10
1453;DHT22;720;47.738;7.998;2024-02-23T10:38:21;16.20;48.60
1453;DHT22;720;47.738;7.998;2024-02-23T10:40:48;16.00;49.10
1453;DHT22;720;47.738;7.998;2024-02-23T10:43:19;14.80;49.10
1453;DHT22;720;47.738;7.998;2024-02-23T10:45:46;13.40;51.20
1453;DHT22;720;47.738;7.998;2024-02-23T10:48:12;12.60;52.90
1453;DHT22;720;47.738;7.998;2024-02-23T10:50:41;12.40;54.40
1453;DHT22;720;47.738;7.998;2024-02-23T10:53:10;12.00;54.40
1453;DHT22;720;47.738;7.998;2024-02-23T10:55:37;11.90;54.30
1453;DHT22;720;47.738;7.998;2024-02-23T10:58:07;11.90;55.20
1453;DHT22;720;47.738;7.998;2024-02-23T11:00:36;11.60;55.60
1453;DHT22;720;47.738;7.998;2024-02-23T11:03:03;10.90;56.30
1453;DHT22;720;47.738;7.998;2024-02-23T11:05:30;10.10;56.60
1453;DHT22;720;47.738;7.998;2024-02-23T11:07:56;9.60;59.00
1453;DHT22;720;47.738;7.998;2024-02-23T11:10:22;9.50;60.00
1453;DHT22;720;47.738;7.998;2024-02-23T11:12:59;9.20;61.20
1453;DHT22;720;47.738;7.998;2024-02-23T11:15:29;9.10;65.60
1453;DHT22;720;47.738;7.998;2024-02-23T11:17:55;9.40;65.50
1453;DHT22;720;47.738;7.998;2024-02-23T11:20:20;9.30;66.90
1453;DHT22;720;47.738;7.998;2024-02-23T11:22:52;9.20;66.30
1453;DHT22;720;47.738;7.998;2024-02-23T11:25:26;9.00;66.30
1453;DHT22;720;47.738;7.998;2024-02-23T11:27:52;8.90;66.60
1453;DHT22;720;47.738;7.998;2024-02-23T11:30:18;9.00;66.30
1453;DHT22;720;47.738;7.998;2024-02-23T11:32:45;9.40;67.20
1453;DHT22;720;47.738;7.998;2024-02-23T11:35:17;9.40;66.00
1453;DHT22;720;47.738;7.998;2024-02-23T11:37:53;9.50;67.90
1453;DHT22;720;47.738;7.998;2024-02-23T11:40:26;9.80;65.40
1453;DHT22;720;47.738;7.998;2024-02-23T11:42:52;9.90;63.50
1453;DHT22;720;47.738;7.998;2024-02-23T11:45:19;9.70;63.80
1453;DHT22;720;47.738;7.998;2024-02-23T11:47:45;9.70;64.70
1453;DHT22;720;47.738;7.998;2024-02-23T11:50:11;9.70;65.80
1453;DHT22;720;47.738;7.998;2024-02-23T11:52:37;9.70;65.30
1453;DHT22;720;47.738;7.998;2024-02-23T11:55:04;9.70;65.60
1453;DHT22;720;47.738;7.998;2024-02-23T11:57:31;9.90;64.00
1453;DHT22;720;47.738;7.998;2024-02-23T11:59:57;9.80;63.00
1453;DHT22;720;47.738;7.998;2024-02-23T12:02:24;9.60;64.60
1453;DHT22;720;47.738;7.998;2024-02-23T12:04:49;9.80;65.60
1453;DHT22;720;47.738;7.998;2024-02-23T12:07:15;9.60;64.60
1453;DHT22;720;47.738;7.998;2024-02-23T12:09:41;9.50;65.50
1453;DHT22;720;47.738;7.998;2024-02-23T12:12:08;9.10;67.20
1453;DHT22;720;47.738;7.998;2024-02-23T12:14:37;8.90;65.90
1453;DHT22;720;47.738;7.998;2024-02-23T12:17:03;8.90;66.80
1453;DHT22;720;47.738;7.998;2024-02-23T12:19:29;8.90;65.50
1453;DHT22;720;47.738;7.998;2024-02-23T12:22:00;9.20;66.50
1453;DHT22;720;47.738;7.998;2024-02-23T12:24:26;9.50;65.20
1453;DHT22;720;47.738;7.998;2024-02-23T12:26:57;9.50;64.90
1453;DHT22;720;47.738;7.998;2024-02-23T12:29:23;9.20;64.30
1453;DHT22;720;47.738;7.998;2024-02-23T12:31:49;9.10;65.30
1453;DHT22;720;47.738;7.998;2024-02-23T12:34:15;9.20;67.20
1453;DHT22;720;47.738;7.998;2024-02-23T12:36:41;9.10;66.00
1453;DHT22;720;47.738;7.998;2024-02-23T12:39:07;9.10;66.70
1453;DHT22;720;47.738;7.998;2024-02-23T12:41:33;9.30;67.00
1453;DHT22;720;47.738;7.998;2024-02-23T12:43:59;9.20;66.00
1453;DHT22;720;47.738;7.998;2024-02-23T12:46:24;9.20;67.40
1453;DHT22;720;47.738;7.998;2024-02-23T12:48:51;9.20;67.40
1453;DHT22;720;47.738;7.998;2024-02-23T12:51:16;9.10;66.80
1453;DHT22;720;47.738;7.998;2024-02-23T12:53:43;9.30;66.30
1453;DHT22;720;47.738;7.998;2024-02-23T12:56:13;9.30;65.30
1453;DHT22;720;47.738;7.998;2024-02-23T12:58:42;9.30;65.20
1453;DHT22;720;47.738;7.998;2024-02-23T13:01:10;9.50;66.20
1453;DHT22;720;47.738;7.998;2024-02-23T13:03:37;9.50;68.10
1453;DHT22;720;47.738;7.998;2024-02-23T13:06:03;9.70;66.70
1453;DHT22;720;47.738;7.998;2024-02-23T13:08:30;9.90;65.40
1453;DHT22;720;47.738;7.998;2024-02-23T13:10:56;10.00;64.40
1453;DHT22;720;47.738;7.998;2024-02-23T13:13:23;9.90;63.60
1453;DHT22;720;47.738;7.998;2024-02-23T13:15:51;9.90;62.90
1453;DHT22;720;47.738;7.998;2024-02-23T13:18:17;9.60;61.70
1453;DHT22;720;47.738;7.998;2024-02-23T13:20:44;9.50;66.30
1453;DHT22;720;47.738;7.998;2024-02-23T13:23:11;9.60;65.80
1453;DHT22;720;47.738;7.998;2024-02-23T13:25:40;9.80;65.30
1453;DHT22;720;47.738;7.998;2024-02-23T13:28:07;9.90;66.50
1453;DHT22;720;47.738;7.998;2024-02-23T13:30:33;9.90;66.00
1453;DHT22;720;47.738;7.998;2024-02-23T13:32:59;9.90;65.20
1453;DHT22;720;47.738;7.998;2024-02-23T13:35:26;10.00;64.40
1453;DHT22;720;47.738;7.998;2024-02-23T13:37:52;9.80;66.00
1453;DHT22;720;47.738;7.998;2024-02-23T13:40:18;9.90;67.20
1453;DHT22;720;47.738;7.998;2024-02-23T13:42:44;9.90;67.60
1453;DHT22;720;47.738;7.998;2024-02-23T13:45:15;10.00;66.70
1453;DHT22;720;47.738;7.998;2024-02-23T13:47:42;10.10;67.00
1453;DHT22;720;47.738;7.998;2024-02-23T13:50:10;10.40;65.90
1453;DHT22;720;47.738;7.998;2024-02-23T13:52:36;10.60;64.10
1453;DHT22;720;47.738;7.998;2024-02-23T13:55:01;10.60;65.00
1453;DHT22;720;47.738;7.998;2024-02-23T13:57:27;10.60;65.90
1453;DHT22;720;47.738;7.998;2024-02-23T13:59:53;10.40;63.90
1453;DHT22;720;47.738;7.998;2024-02-23T14:02:25;10.20;63.50
1453;DHT22;720;47.738;7.998;2024-02-23T14:04:52;9.80;66.20
1453;DHT22;720;47.738;7.998;2024-02-23T14:07:19;9.50;68.10
1453;DHT22;720;47.738;7.998;2024-02-23T14:09:44;9.20;74.50
1453;DHT22;720;47.738;7.998;2024-02-23T14:12:10;9.20;72.10
1453;DHT22;720;47.738;7.998;2024-02-23T14:14:35;9.30;68.80
1453;DHT22;720;47.738;7.998;2024-02-23T14:17:01;9.30;69.00
1453;DHT22;720;47.738;7.998;2024-02-23T14:19:27;9.30;67.90
1453;DHT22;720;47.738;7.998;2024-02-23T14:21:52;9.40;67.60
1453;DHT22;720;47.738;7.998;2024-02-23T14:24:18;9.50;72.50
1453;DHT22;720;47.738;7.998;2024-02-23T14:26:44;9.60;72.40
1453;DHT22;720;47.738;7.998;2024-02-23T14:29:09;9.70;71.90
1453;DHT22;720;47.738;7.998;2024-02-23T14:31:35;9.90;69.40
1453;DHT22;720;47.738;7.998;2024-02-23T14:34:00;9.90;69.60
1453;DHT22;720;47.738;7.998;2024-02-23T14:36:26;9.90;69.90
1453;DHT22;720;47.738;7.998;2024-02-23T14:38:52;9.90;69.70
1453;DHT22;720;47.738;7.998;2024-02-23T14:41:18;9.90;69.60
1453;DHT22;720;47.738;7.998;2024-02-23T14:43:43;9.90;68.40
1453;DHT22;720;47.738;7.998;2024-02-23T14:46:09;9.90;68.10
1453;DHT22;720;47.738;7.998;2024-02-23T14:48:35;9.60;73.00
1453;DHT22;720;47.738;7.998;2024-02-23T14:51:00;9.50;79.30
1453;DHT22;720;47.738;7.998;2024-02-23T14:53:29;9.20;81.00
1453;DHT22;720;47.738;7.998;2024-02-23T14:55:54;9.10;81.50
1453;DHT22;720;47.738;7.998;2024-02-23T14:58:20;8.90;85.40
1453;DHT22;720;47.738;7.998;2024-02-23T15:00:46;8.70;88.20
1453;DHT22;720;47.738;7.998;2024-02-23T15:03:12;8.50;90.20
1453;DHT22;720;47.738;7.998;2024-02-23T15:05:38;8.50;90.50
1453;DHT22;720;47.738;7.998;2024-02-23T15:08:04;8.70;90.40
1453;DHT22;720;47.738;7.998;2024-02-23T15:10:30;8.90;89.40
1453;DHT22;720;47.738;7.998;2024-02-23T15:12:56;9.20;87.40
1453;DHT22;720;47.738;7.998;2024-02-23T15:15:22;9.30;84.20
1453;DHT22;720;47.738;7.998;2024-02-23T15:17:48;9.20;87.40
1453;DHT22;720;47.738;7.998;2024-02-23T15:20:14;9.10;88.20
1453;DHT22;720;47.738;7.998;2024-02-23T15:22:40;8.80;90.00
1453;DHT22;720;47.738;7.998;2024-02-23T15:25:08;8.50;90.80
1453;DHT22;720;47.738;7.998;2024-02-23T15:27:35;8.20;91.10
1453;DHT22;720;47.738;7.998;2024-02-23T15:30:00;8.00;91.60
1453;DHT22;720;47.738;7.998;2024-02-23T15:32:26;7.90;91.90
1453;DHT22;720;47.738;7.998;2024-02-23T15:34:52;7.80;92.20
1453;DHT22;720;47.738;7.998;2024-02-23T15:37:17;7.70;92.80
1453;DHT22;720;47.738;7.998;2024-02-23T15:39:43;7.60;93.60
1453;DHT22;720;47.738;7.998;2024-02-23T15:42:10;7.50;94.00
1453;DHT22;720;47.738;7.998;2024-02-23T15:44:35;7.60;94.10
1453;DHT22;720;47.738;7.998;2024-02-23T15:47:01;7.50;93.90
1453;DHT22;720;47.738;7.998;2024-02-23T15:49:26;7.60;94.60
1453;DHT22;720;47.738;7.998;2024-02-23T15:51:52;7.50;95.30
1453;DHT22;720;47.738;7.998;2024-02-23T15:54:18;7.50;95.30
1453;DHT22;720;47.738;7.998;2024-02-23T15:56:43;7.50;95.30
1453;DHT22;720;47.738;7.998;2024-02-23T15:59:09;7.40;95.30
1453;DHT22;720;47.738;7.998;2024-02-23T16:01:36;7.40;95.70
1453;DHT22;720;47.738;7.998;2024-02-23T16:04:02;7.40;96.40
1453;DHT22;720;47.738;7.998;2024-02-23T16:06:28;7.20;96.70
1453;DHT22;720;47.738;7.998;2024-02-23T16:08:59;7.30;96.50
1453;DHT22;720;47.738;7.998;2024-02-23T16:11:25;7.30;96.90
1453;DHT22;720;47.738;7.998;2024-02-23T16:13:52;7.30;97.00
1453;DHT22;720;47.738;7.998;2024-02-23T16:16:18;7.20;97.20
1453;DHT22;720;47.738;7.998;2024-02-23T16:18:43;7.00;97.60
1453;DHT22;720;47.738;7.998;2024-02-23T16:21:09;6.90;97.70
1453;DHT22;720;47.738;7.998;2024-02-23T16:23:44;6.90;97.90
1453;DHT22;720;47.738;7.998;2024-02-23T16:26:10;6.90;97.90